sensor_id;sensor_type;location;lat;lon;timestamp;temperature;humidity
51733;DHT22;39139;53.144;6.244;2023-03-01T00:01:07;-1.00;99.90
51733;DHT22;39139;53.144;6.244;2023-03-01T00:03:33;-1.00;99.90
51733;DHT22;39139;53.144;6.244;2023-03-01T00:05:59;-1.10;99.90
51733;DHT22;39139;53.144;6.244;2023-03-01T00:08:26;-1.00;99.90
51733;DHT22;39139;53.144;6.244;2023-03-01T00:11:05;-1.00;99.90
51733;DHT22;39139;53.144;6.244;2023-03-01T00:13:31;-1.00;99.90
51733;DHT22;39139;53.144;6.244;2023-03-01T00:15:56;-1.10;99.90
51733;DHT22;39139;53.144;6.244;2023-03-01T00:18:22;-1.10;99.90
51733;DHT22;39139;53.144;6.244;2023-03-01T00:20:54;-1.20;99.90
51733;DHT22;39139;53.144;6.244;2023-03-01T00:23:21;-1.10;99.90
51733;DHT22;39139;53.144;6.244;2023-03-01T00:25:47;-1.20;99.90
51733;DHT22;39139;53.144;6.244;2023-03-01T00:28:13;-1.20;99.90
51733;DHT22;39139;53.144;6.244;2023-03-01T00:30:39;-1.20;99.90
51733;DHT22;39139;53.144;6.244;2023-03-01T00:33:05;-1.30;99.90
51733;DHT22;39139;53.144;6.244;2023-03-01T00:35:32;-1.30;99.90
51733;DHT22;39139;53.144;6.244;2023-03-01T00:37:58;-1.30;99.90
51733;DHT22;39139;53.144;6.244;2023-03-01T00:40:25;-1.30;99.90
51733;DHT22;39139;53.144;6.244;2023-03-01T00:42:51;-1.40;99.90
51733;DHT22;39139;53.144;6.244;2023-03-01T00:45:17;-1.40;99.90
51733;DHT22;39139;53.144;6.244;2023-03-01T00:47:43;-1.40;99.90
51733;DHT22;39139;53.144;6.244;2023-03-01T00:50:09;-1.40;99.90
51733;DHT22;39139;53.144;6.244;2023-03-01T00:52:36;-1.30;99.90
51733;DHT22;39139;53.144;6.244;2023-03-01T00:55:01;-1.40;99.90
51733;DHT22;39139;53.144;6.244;2023-03-01T00:57:27;-1.40;99.90
51733;DHT22;39139;53.144;6.244;2023-03-01T00:59:53;-1.40;99.90
51733;DHT22;39139;53.144;6.244;2023-03-01T01:02:19;-1.40;99.90
51733;DHT22;39139;53.144;6.244;2023-03-01T01:04:45;-1.40;99.90
51733;DHT22;39139;53.144;6.244;2023-03-01T01:07:12;-1.50;99.90
51733;DHT22;39139;53.144;6.244;2023-03-01T01:09:38;-1.50;99.90
51733;DHT22;39139;53.144;6.244;2023-03-01T01:12:04;-1.60;99.90
51733;DHT22;39139;53.144;6.244;2023-03-01T01:14:30;-1.60;99.90
51733;DHT22;39139;53.144;6.244;2023-03-01T01:16:56;-1.60;99.90
51733;DHT22;39139;53.144;6.244;2023-03-01T01:19:22;-1.70;99.90
51733;DHT22;39139;53.144;6.244;2023-03-01T01:21:48;-1.70;99.90
51733;DHT22;39139;53.144;6.244;2023-03-01T01:24:14;-1.70;99.90
51733;DHT22;39139;53.144;6.244;2023-03-01T01:26:41;-1.70;99.90
51733;DHT22;39139;53.144;6.244;2023-03-01T01:29:07;-1.80;99.90
51733;DHT22;39139;53.144;6.244;2023-03-01T01:31:34;-1.80;99.90
51733;DHT22;39139;53.144;6.244;2023-03-01T01:34:02;-1.80;99.90
51733;DHT22;39139;53.144;6.244;2023-03-01T01:36:29;-1.90;99.90
51733;DHT22;39139;53.144;6.244;2023-03-01T01:38:54;-1.90;99.90
51733;DHT22;39139;53.144;6.244;2023-03-01T01:41:22;-1.90;99.90
51733;DHT22;39139;53.144;6.244;2023-03-01T01:44:09;-1.90;99.90
51733;DHT22;39139;53.144;6.244;2023-03-01T01:46:41;-2.00;99.90
51733;DHT22;39139;53.144;6.244;2023-03-01T01:52:20;-2.00;99.90
51733;DHT22;39139;53.144;6.244;2023-03-01T01:57:25;-2.10;99.90
51733;DHT22;39139;53.144;6.244;2023-03-01T01:59:56;-2.10;99.90
51733;DHT22;39139;53.144;6.244;2023-03-01T02:02:24;-2.10;99.90
51733;DHT22;39139;53.144;6.244;2023-03-01T02:04:54;-2.10;99.90
51733;DHT22;39139;53.144;6.244;2023-03-01T02:07:22;-2.10;99.90
51733;DHT22;39139;53.144;6.244;2023-03-01T02:09:51;-2.10;99.90
51733;DHT22;39139;53.144;6.244;2023-03-01T02:12:20;-2.10;99.90
51733;DHT22;39139;53.144;6.244;2023-03-01T02:14:46;-2.10;99.90
51733;DHT22;39139;53.144;6.244;2023-03-01T02:17:14;-2.10;99.90
51733;DHT22;39139;53.144;6.244;2023-03-01T02:19:48;-2.20;99.90
51733;DHT22;39139;53.144;6.244;2023-03-01T02:22:22;-2.20;99.90
51733;DHT22;39139;53.144;6.244;2023-03-01T02:30:20;-2.20;99.90
51733;DHT22;39139;53.144;6.244;2023-03-01T02:32:47;-2.20;99.90
51733;DHT22;39139;53.144;6.244;2023-03-01T02:35:16;-2.20;99.90
51733;DHT22;39139;53.144;6.244;2023-03-01T02:37:43;-1.90;99.90
51733;DHT22;39139;53.144;6.244;2023-03-01T02:40:14;-2.20;99.90
51733;DHT22;39139;53.144;6.244;2023-03-01T02:42:56;-2.20;99.90
51733;DHT22;39139;53.144;6.244;2023-03-01T02:45:22;-2.20;99.90
51733;DHT22;39139;53.144;6.244;2023-03-01T02:47:49;-2.20;99.90
51733;DHT22;39139;53.144;6.244;2023-03-01T02:55:59;-2.40;99.90
51733;DHT22;39139;53.144;6.244;2023-03-01T02:58:24;-2.40;99.90
51733;DHT22;39139;53.144;6.244;2023-03-01T03:00:50;-2.50;99.90
51733;DHT22;39139;53.144;6.244;2023-03-01T03:03:20;-2.40;99.90
51733;DHT22;39139;53.144;6.244;2023-03-01T03:05:47;-2.60;99.90
51733;DHT22;39139;53.144;6.244;2023-03-01T03:08:14;-2.70;99.90
51733;DHT22;39139;53.144;6.244;2023-03-01T03:10:42;-2.70;99.90
51733;DHT22;39139;53.144;6.244;2023-03-01T03:13:12;-2.80;99.90
51733;DHT22;39139;53.144;6.244;2023-03-01T03:15:40;-2.80;99.90
51733;DHT22;39139;53.144;6.244;2023-03-01T03:18:09;-2.80;99.90
51733;DHT22;39139;53.144;6.244;2023-03-01T03:20:36;-2.80;99.90
51733;DHT22;39139;53.144;6.244;2023-03-01T03:23:03;-2.90;99.90
51733;DHT22;39139;53.144;6.244;2023-03-01T03:25:29;-2.90;99.90
51733;DHT22;39139;53.144;6.244;2023-03-01T03:27:56;-2.90;99.90
51733;DHT22;39139;53.144;6.244;2023-03-01T03:30:25;-3.00;99.90
51733;DHT22;39139;53.144;6.244;2023-03-01T03:32:51;-3.00;99.90
51733;DHT22;39139;53.144;6.244;2023-03-01T03:35:20;-3.00;99.90
51733;DHT22;39139;53.144;6.244;2023-03-01T03:37:46;-3.00;99.90
51733;DHT22;39139;53.144;6.244;2023-03-01T03:42:57;-3.00;99.90
51733;DHT22;39139;53.144;6.244;2023-03-01T03:45:23;-3.10;99.90
51733;DHT22;39139;53.144;6.244;2023-03-01T03:47:49;-3.10;99.90
51733;DHT22;39139;53.144;6.244;2023-03-01T03:50:16;-3.00;99.90
51733;DHT22;39139;53.144;6.244;2023-03-01T03:52:42;-3.00;99.90
51733;DHT22;39139;53.144;6.244;2023-03-01T03:55:10;-3.10;99.90
51733;DHT22;39139;53.144;6.244;2023-03-01T03:57:37;-3.10;99.90
51733;DHT22;39139;53.144;6.244;2023-03-01T04:00:04;-3.10;99.90
51733;DHT22;39139;53.144;6.244;2023-03-01T04:02:30;-3.10;99.90
51733;DHT22;39139;53.144;6.244;2023-03-01T04:04:56;-3.10;99.90
51733;DHT22;39139;53.144;6.244;2023-03-01T04:07:22;-3.10;99.90
51733;DHT22;39139;53.144;6.244;2023-03-01T04:09:47;-3.10;99.90
51733;DHT22;39139;53.144;6.244;2023-03-01T04:12:13;-3.10;99.90
51733;DHT22;39139;53.144;6.244;2023-03-01T04:14:39;-3.10;99.90
51733;DHT22;39139;53.144;6.244;2023-03-01T04:17:04;-3.10;99.90
51733;DHT22;39139;53.144;6.244;2023-03-01T04:19:31;-3.20;99.90
51733;DHT22;39139;53.144;6.244;2023-03-01T04:22:04;-3.10;99.90
51733;DHT22;39139;53.144;6.244;2023-03-01T04:24:35;-3.20;99.90
51733;DHT22;39139;53.144;6.244;2023-03-01T04:27:01;-3.20;99.90
51733;DHT22;39139;53.144;6.244;2023-03-01T04:29:26;-3.20;99.90
51733;DHT22;39139;53.144;6.244;2023-03-01T04:31:52;-3.10;99.90
51733;DHT22;39139;53.144;6.244;2023-03-01T04:34:18;-3.10;99.90
51733;DHT22;39139;53.144;6.244;2023-03-01T04:36:44;-3.10;99.90
51733;DHT22;39139;53.144;6.244;2023-03-01T04:39:09;-3.20;99.90
51733;DHT22;39139;53.144;6.244;2023-03-01T04:41:39;-3.10;99.90
51733;DHT22;39139;53.144;6.244;2023-03-01T04:44:05;-3.20;99.90
51733;DHT22;39139;53.144;6.244;2023-03-01T04:46:31;-3.10;99.90
51733;DHT22;39139;53.144;6.244;2023-03-01T04:48:57;-3.10;99.90
51733;DHT22;39139;53.144;6.244;2023-03-01T04:51:23;-3.10;99.90
51733;DHT22;39139;53.144;6.244;2023-03-01T04:53:48;-3.10;99.90
51733;DHT22;39139;53.144;6.244;2023-03-01T04:56:14;-3.10;99.90
51733;DHT22;39139;53.144;6.244;2023-03-01T04:58:41;-3.20;99.90
51733;DHT22;39139;53.144;6.244;2023-03-01T05:01:17;-3.20;99.90
51733;DHT22;39139;53.144;6.244;2023-03-01T05:03:48;-3.10;99.90
51733;DHT22;39139;53.144;6.244;2023-03-01T05:06:15;-3.20;99.90
51733;DHT22;39139;53.144;6.244;2023-03-01T05:08:41;-3.20;99.90
51733;DHT22;39139;53.144;6.244;2023-03-01T05:11:07;-3.20;99.90
51733;DHT22;39139;53.144;6.244;2023-03-01T05:13:35;-3.10;99.90
51733;DHT22;39139;53.144;6.244;2023-03-01T05:16:02;-3.30;99.90
51733;DHT22;39139;53.144;6.244;2023-03-01T05:18:30;-3.30;99.90
51733;DHT22;39139;53.144;6.244;2023-03-01T05:21:02;-3.30;99.90
51733;DHT22;39139;53.144;6.244;2023-03-01T05:23:30;-3.30;99.90
51733;DHT22;39139;53.144;6.244;2023-03-01T05:26:01;-3.30;99.90
51733;DHT22;39139;53.144;6.244;2023-03-01T05:28:27;-3.40;99.90
51733;DHT22;39139;53.144;6.244;2023-03-01T05:30:54;-3.40;99.90
51733;DHT22;39139;53.144;6.244;2023-03-01T05:33:19;-3.50;99.90
51733;DHT22;39139;53.144;6.244;2023-03-01T05:35:48;-3.50;99.90
51733;DHT22;39139;53.144;6.244;2023-03-01T05:38:15;-3.50;99.90
51733;DHT22;39139;53.144;6.244;2023-03-01T05:40:42;-3.60;99.90
51733;DHT22;39139;53.144;6.244;2023-03-01T05:43:13;-3.60;99.90
51733;DHT22;39139;53.144;6.244;2023-03-01T05:45:40;-2.10;99.90
51733;DHT22;39139;53.144;6.244;2023-03-01T05:48:06;-2.90;99.90
51733;DHT22;39139;53.144;6.244;2023-03-01T05:50:38;-3.70;99.90
51733;DHT22;39139;53.144;6.244;2023-03-01T05:53:11;-3.70;99.90
51733;DHT22;39139;53.144;6.244;2023-03-01T05:55:37;-3.70;99.90
51733;DHT22;39139;53.144;6.244;2023-03-01T05:58:05;-3.70;99.90
51733;DHT22;39139;53.144;6.244;2023-03-01T06:00:31;-3.70;99.90
51733;DHT22;39139;53.144;6.244;2023-03-01T06:02:58;-3.70;99.90
51733;DHT22;39139;53.144;6.244;2023-03-01T06:05:24;-3.70;99.90
51733;DHT22;39139;53.144;6.244;2023-03-01T06:07:50;-3.70;99.90
51733;DHT22;39139;53.144;6.244;2023-03-01T06:10:17;-3.70;99.90
51733;DHT22;39139;53.144;6.244;2023-03-01T06:12:43;-3.80;99.90
51733;DHT22;39139;53.144;6.244;2023-03-01T06:15:15;-3.80;99.90
51733;DHT22;39139;53.144;6.244;2023-03-01T06:17:42;-3.80;99.90
51733;DHT22;39139;53.144;6.244;2023-03-01T06:20:22;-3.80;99.90
51733;DHT22;39139;53.144;6.244;2023-03-01T06:22:48;-3.80;99.90
51733;DHT22;39139;53.144;6.244;2023-03-01T06:25:16;-3.80;99.90
51733;DHT22;39139;53.144;6.244;2023-03-01T06:27:42;-3.80;99.90
51733;DHT22;39139;53.144;6.244;2023-03-01T06:30:10;-3.90;99.90
51733;DHT22;39139;53.144;6.244;2023-03-01T06:32:38;-3.30;99.90
51733;DHT22;39139;53.144;6.244;2023-03-01T06:35:07;-3.90;99.90
51733;DHT22;39139;53.144;6.244;2023-03-01T06:37:33;-3.90;99.90
51733;DHT22;39139;53.144;6.244;2023-03-01T06:40:01;-3.90;99.90
51733;DHT22;39139;53.144;6.244;2023-03-01T06:42:32;-3.80;99.90
51733;DHT22;39139;53.144;6.244;2023-03-01T06:44:57;-3.80;99.90
51733;DHT22;39139;53.144;6.244;2023-03-01T06:47:23;-3.80;99.90
51733;DHT22;39139;53.144;6.244;2023-03-01T06:49:49;-3.80;99.90
51733;DHT22;39139;53.144;6.244;2023-03-01T06:52:14;-3.80;99.90
51733;DHT22;39139;53.144;6.244;2023-03-01T06:54:40;-3.80;99.90
51733;DHT22;39139;53.144;6.244;2023-03-01T06:57:05;-3.70;99.90
51733;DHT22;39139;53.144;6.244;2023-03-01T06:59:31;-3.70;99.90
51733;DHT22;39139;53.144;6.244;2023-03-01T07:01:57;-3.70;99.90
51733;DHT22;39139;53.144;6.244;2023-03-01T07:04:22;-3.60;99.90
51733;DHT22;39139;53.144;6.244;2023-03-01T07:06:48;-3.60;99.90
51733;DHT22;39139;53.144;6.244;2023-03-01T07:09:23;-3.50;99.90
51733;DHT22;39139;53.144;6.244;2023-03-01T07:11:49;-3.40;99.90
51733;DHT22;39139;53.144;6.244;2023-03-01T07:14:15;-2.90;99.90
51733;DHT22;39139;53.144;6.244;2023-03-01T07:16:41;-3.20;99.90
51733;DHT22;39139;53.144;6.244;2023-03-01T07:19:06;-3.10;99.90
51733;DHT22;39139;53.144;6.244;2023-03-01T07:21:32;-3.00;99.90
51733;DHT22;39139;53.144;6.244;2023-03-01T07:23:58;-2.90;99.90
51733;DHT22;39139;53.144;6.244;2023-03-01T07:26:23;-2.90;99.90
51733;DHT22;39139;53.144;6.244;2023-03-01T07:28:49;-2.80;99.90
51733;DHT22;39139;53.144;6.244;2023-03-01T07:31:15;-2.70;99.90
51733;DHT22;39139;53.144;6.244;2023-03-01T07:33:40;-2.60;99.90
51733;DHT22;39139;53.144;6.244;2023-03-01T07:36:06;-2.50;99.90
51733;DHT22;39139;53.144;6.244;2023-03-01T07:38:32;-2.40;99.90
51733;DHT22;39139;53.144;6.244;2023-03-01T07:41:03;-2.30;99.90
51733;DHT22;39139;53.144;6.244;2023-03-01T07:43:29;-2.20;99.90
51733;DHT22;39139;53.144;6.244;2023-03-01T07:45:58;-2.10;99.90
51733;DHT22;39139;53.144;6.244;2023-03-01T07:48:24;-1.90;99.90
51733;DHT22;39139;53.144;6.244;2023-03-01T07:50:50;-1.80;99.90
51733;DHT22;39139;53.144;6.244;2023-03-01T07:53:16;-1.70;99.90
51733;DHT22;39139;53.144;6.244;2023-03-01T07:55:41;-1.50;99.90
51733;DHT22;39139;53.144;6.244;2023-03-01T07:58:07;-1.40;99.90
51733;DHT22;39139;53.144;6.244;2023-03-01T08:00:33;-1.20;99.90
51733;DHT22;39139;53.144;6.244;2023-03-01T08:02:59;-1.10;99.90
51733;DHT22;39139;53.144;6.244;2023-03-01T08:05:26;-1.00;99.90
51733;DHT22;39139;53.144;6.244;2023-03-01T08:07:52;-0.80;99.90
51733;DHT22;39139;53.144;6.244;2023-03-01T08:10:18;-0.60;99.90
51733;DHT22;39139;53.144;6.244;2023-03-01T08:12:44;0.00;99.90
51733;DHT22;39139;53.144;6.244;2023-03-01T08:15:10;-0.20;99.90
51733;DHT22;39139;53.144;6.244;2023-03-01T08:17:36;0.20;99.90
51733;DHT22;39139;53.144;6.244;2023-03-01T08:20:02;0.60;99.90
51733;DHT22;39139;53.144;6.244;2023-03-01T08:22:29;1.10;99.90
51733;DHT22;39139;53.144;6.244;2023-03-01T08:24:55;1.70;99.90
51733;DHT22;39139;53.144;6.244;2023-03-01T08:27:21;2.10;99.90
51733;DHT22;39139;53.144;6.244;2023-03-01T08:29:47;2.70;99.90
51733;DHT22;39139;53.144;6.244;2023-03-01T08:32:12;3.00;99.90
51733;DHT22;39139;53.144;6.244;2023-03-01T08:34:38;3.10;99.90
51733;DHT22;39139;53.144;6.244;2023-03-01T08:37:03;3.40;99.90
51733;DHT22;39139;53.144;6.244;2023-03-01T08:39:29;3.80;99.90
51733;DHT22;39139;53.144;6.244;2023-03-01T08:41:55;4.20;99.90
51733;DHT22;39139;53.144;6.244;2023-03-01T08:44:21;4.50;99.90
51733;DHT22;39139;53.144;6.244;2023-03-01T08:46:47;4.90;99.90
51733;DHT22;39139;53.144;6.244;2023-03-01T08:49:15;5.00;99.90
51733;DHT22;39139;53.144;6.244;2023-03-01T08:51:41;5.50;99.90
51733;DHT22;39139;53.144;6.244;2023-03-01T08:54:11;5.70;99.90
51733;DHT22;39139;53.144;6.244;2023-03-01T08:56:37;5.90;99.90
51733;DHT22;39139;53.144;6.244;2023-03-01T08:59:03;6.30;99.90
51733;DHT22;39139;53.144;6.244;2023-03-01T09:01:29;6.80;99.90
51733;DHT22;39139;53.144;6.244;2023-03-01T09:03:54;7.40;99.90
51733;DHT22;39139;53.144;6.244;2023-03-01T09:06:20;7.60;99.90
51733;DHT22;39139;53.144;6.244;2023-03-01T09:08:47;7.70;99.90
51733;DHT22;39139;53.144;6.244;2023-03-01T09:11:16;7.50;99.90
51733;DHT22;39139;53.144;6.244;2023-03-01T09:13:43;7.80;99.90
51733;DHT22;39139;53.144;6.244;2023-03-01T09:16:11;7.60;99.90
51733;DHT22;39139;53.144;6.244;2023-03-01T09:18:36;8.00;99.90
51733;DHT22;39139;53.144;6.244;2023-03-01T09:21:13;8.20;99.90
51733;DHT22;39139;53.144;6.244;2023-03-01T09:23:44;8.30;99.90
51733;DHT22;39139;53.144;6.244;2023-03-01T09:26:13;8.40;99.90
51733;DHT22;39139;53.144;6.244;2023-03-01T09:28:40;8.60;99.90
51733;DHT22;39139;53.144;6.244;2023-03-01T09:31:10;8.60;99.90
51733;DHT22;39139;53.144;6.244;2023-03-01T09:33:39;8.90;99.90
51733;DHT22;39139;53.144;6.244;2023-03-01T09:36:07;9.10;99.90
51733;DHT22;39139;53.144;6.244;2023-03-01T09:38:33;9.10;99.90
51733;DHT22;39139;53.144;6.244;2023-03-01T09:41:00;9.00;99.90
51733;DHT22;39139;53.144;6.244;2023-03-01T09:43:48;8.80;99.90
51733;DHT22;39139;53.144;6.244;2023-03-01T09:46:21;8.90;99.90
51733;DHT22;39139;53.144;6.244;2023-03-01T09:49:03;9.00;99.90
51733;DHT22;39139;53.144;6.244;2023-03-01T09:51:33;8.90;99.90
51733;DHT22;39139;53.144;6.244;2023-03-01T09:54:02;8.90;99.90
51733;DHT22;39139;53.144;6.244;2023-03-01T10:02:22;9.30;99.90
51733;DHT22;39139;53.144;6.244;2023-03-01T10:04:52;9.40;99.90
51733;DHT22;39139;53.144;6.244;2023-03-01T10:09:51;9.50;99.90
51733;DHT22;39139;53.144;6.244;2023-03-01T10:12:25;9.50;99.90
51733;DHT22;39139;53.144;6.244;2023-03-01T10:20:17;10.10;99.90
51733;DHT22;39139;53.144;6.244;2023-03-01T10:22:43;10.30;99.90
51733;DHT22;39139;53.144;6.244;2023-03-01T10:25:14;10.50;99.90
51733;DHT22;39139;53.144;6.244;2023-03-01T10:30:34;10.80;99.90
51733;DHT22;39139;53.144;6.244;2023-03-01T10:33:00;10.90;99.90
51733;DHT22;39139;53.144;6.244;2023-03-01T10:35:32;11.00;99.90
51733;DHT22;39139;53.144;6.244;2023-03-01T10:38:13;11.20;99.90
51733;DHT22;39139;53.144;6.244;2023-03-01T10:41:07;11.30;99.90
51733;DHT22;39139;53.144;6.244;2023-03-01T10:43:46;11.40;99.90
51733;DHT22;39139;53.144;6.244;2023-03-01T10:49:22;11.70;99.90
51733;DHT22;39139;53.144;6.244;2023-03-01T10:51:50;11.70;99.90
51733;DHT22;39139;53.144;6.244;2023-03-01T10:54:26;11.60;99.90
51733;DHT22;39139;53.144;6.244;2023-03-01T10:56:54;11.60;99.90
51733;DHT22;39139;53.144;6.244;2023-03-01T10:59:30;11.70;99.90
51733;DHT22;39139;53.144;6.244;2023-03-01T11:07:29;12.40;99.90
51733;DHT22;39139;53.144;6.244;2023-03-01T11:09:55;12.60;99.90
51733;DHT22;39139;53.144;6.244;2023-03-01T11:12:21;12.70;99.90
51733;DHT22;39139;53.144;6.244;2023-03-01T11:14:54;12.90;99.90
51733;DHT22;39139;53.144;6.244;2023-03-01T11:17:31;13.20;99.90
51733;DHT22;39139;53.144;6.244;2023-03-01T11:20:15;13.40;99.90
51733;DHT22;39139;53.144;6.244;2023-03-01T11:22:50;13.40;99.90
51733;DHT22;39139;53.144;6.244;2023-03-01T11:25:20;13.70;99.90
51733;DHT22;39139;53.144;6.244;2023-03-01T11:27:47;13.70;99.90
51733;DHT22;39139;53.144;6.244;2023-03-01T11:35:27;13.40;99.90
51733;DHT22;39139;53.144;6.244;2023-03-01T11:38:05;13.20;99.90
51733;DHT22;39139;53.144;6.244;2023-03-01T11:43:19;13.30;99.90
51733;DHT22;39139;53.144;6.244;2023-03-01T11:48:45;13.50;99.90
51733;DHT22;39139;53.144;6.244;2023-03-01T11:51:23;13.30;99.90
51733;DHT22;39139;53.144;6.244;2023-03-01T11:53:59;13.10;99.70
51733;DHT22;39139;53.144;6.244;2023-03-01T11:56:41;12.90;99.90
51733;DHT22;39139;53.144;6.244;2023-03-01T12:08:20;12.80;99.90
51733;DHT22;39139;53.144;6.244;2023-03-01T12:24:52;13.90;99.40
51733;DHT22;39139;53.144;6.244;2023-03-01T12:27:47;13.70;98.50
51733;DHT22;39139;53.144;6.244;2023-03-01T12:30:39;13.80;98.90
51733;DHT22;39139;53.144;6.244;2023-03-01T12:35:54;13.90;98.10
51733;DHT22;39139;53.144;6.244;2023-03-01T12:44:10;14.00;97.30
51733;DHT22;39139;53.144;6.244;2023-03-01T12:49:28;14.00;96.60
51733;DHT22;39139;53.144;6.244;2023-03-01T12:52:15;13.50;97.40
51733;DHT22;39139;53.144;6.244;2023-03-01T12:54:44;13.70;98.00
51733;DHT22;39139;53.144;6.244;2023-03-01T12:57:16;13.80;97.30
51733;DHT22;39139;53.144;6.244;2023-03-01T13:00:26;13.90;97.70
51733;DHT22;39139;53.144;6.244;2023-03-01T13:06:00;13.40;97.40
51733;DHT22;39139;53.144;6.244;2023-03-01T13:08:42;13.10;98.10
51733;DHT22;39139;53.144;6.244;2023-03-01T13:11:18;13.10;98.30
51733;DHT22;39139;53.144;6.244;2023-03-01T13:13:44;13.30;98.50
51733;DHT22;39139;53.144;6.244;2023-03-01T13:19:18;13.60;98.00
51733;DHT22;39139;53.144;6.244;2023-03-01T13:21:45;13.80;97.30
51733;DHT22;39139;53.144;6.244;2023-03-01T13:24:35;13.60;96.80
51733;DHT22;39139;53.144;6.244;2023-03-01T13:27:22;13.60;97.90
51733;DHT22;39139;53.144;6.244;2023-03-01T13:29:55;13.80;97.60
51733;DHT22;39139;53.144;6.244;2023-03-01T13:37:25;13.60;97.60
51733;DHT22;39139;53.144;6.244;2023-03-01T13:39:52;13.40;97.40
51733;DHT22;39139;53.144;6.244;2023-03-01T13:44:52;12.20;98.70
51733;DHT22;39139;53.144;6.244;2023-03-01T13:47:18;11.90;99.20
51733;DHT22;39139;53.144;6.244;2023-03-01T13:49:51;11.70;99.70
51733;DHT22;39139;53.144;6.244;2023-03-01T13:57:39;11.40;99.90
51733;DHT22;39139;53.144;6.244;2023-03-01T14:03:14;11.40;99.90
51733;DHT22;39139;53.144;6.244;2023-03-01T14:05:40;11.40;99.90
51733;DHT22;39139;53.144;6.244;2023-03-01T14:08:22;11.40;99.90
51733;DHT22;39139;53.144;6.244;2023-03-01T14:13:45;11.60;99.90
51733;DHT22;39139;53.144;6.244;2023-03-01T14:16:24;11.40;99.90
51733;DHT22;39139;53.144;6.244;2023-03-01T14:19:16;11.20;99.90
51733;DHT22;39139;53.144;6.244;2023-03-01T14:21:43;11.20;99.90
51733;DHT22;39139;53.144;6.244;2023-03-01T14:24:20;10.90;99.90
51733;DHT22;39139;53.144;6.244;2023-03-01T14:26:47;11.00;99.90
51733;DHT22;39139;53.144;6.244;2023-03-01T14:29:37;10.80;99.90
51733;DHT22;39139;53.144;6.244;2023-03-01T14:32:29;10.80;99.90
51733;DHT22;39139;53.144;6.244;2023-03-01T14:34:57;10.60;99.90
51733;DHT22;39139;53.144;6.244;2023-03-01T14:37:28;11.00;99.90
51733;DHT22;39139;53.144;6.244;2023-03-01T14:39:55;10.50;99.90
51733;DHT22;39139;53.144;6.244;2023-03-01T14:42:23;10.50;99.90
51733;DHT22;39139;53.144;6.244;2023-03-01T14:44:51;10.50;99.90
51733;DHT22;39139;53.144;6.244;2023-03-01T14:47:31;10.40;99.90
51733;DHT22;39139;53.144;6.244;2023-03-01T14:50:19;10.40;99.90
51733;DHT22;39139;53.144;6.244;2023-03-01T14:52:48;10.20;99.90
51733;DHT22;39139;53.144;6.244;2023-03-01T14:55:18;10.10;99.90
51733;DHT22;39139;53.144;6.244;2023-03-01T14:57:48;10.10;99.90
51733;DHT22;39139;53.144;6.244;2023-03-01T15:00:38;10.10;99.90
51733;DHT22;39139;53.144;6.244;2023-03-01T15:03:08;9.90;99.90
51733;DHT22;39139;53.144;6.244;2023-03-01T15:05:39;10.00;99.90
51733;DHT22;39139;53.144;6.244;2023-03-01T15:08:05;10.10;99.90
51733;DHT22;39139;53.144;6.244;2023-03-01T15:10:34;10.00;99.90
51733;DHT22;39139;53.144;6.244;2023-03-01T15:13:23;10.00;99.90
51733;DHT22;39139;53.144;6.244;2023-03-01T15:15:50;9.90;99.90
51733;DHT22;39139;53.144;6.244;2023-03-01T15:18:19;9.90;99.90
51733;DHT22;39139;53.144;6.244;2023-03-01T15:20:47;10.00;99.90
51733;DHT22;39139;53.144;6.244;2023-03-01T15:23:25;9.50;99.90
51733;DHT22;39139;53.144;6.244;2023-03-01T15:25:53;9.40;99.90
51733;DHT22;39139;53.144;6.244;2023-03-01T15:28:31;9.40;99.90
51733;DHT22;39139;53.144;6.244;2023-03-01T15:31:06;9.20;99.90
51733;DHT22;39139;53.144;6.244;2023-03-01T15:33:38;9.20;99.90
51733;DHT22;39139;53.144;6.244;2023-03-01T15:39:00;9.00;99.90
51733;DHT22;39139;53.144;6.244;2023-03-01T15:41:32;8.90;99.90
51733;DHT22;39139;53.144;6.244;2023-03-01T15:43:59;9.00;99.90
51733;DHT22;39139;53.144;6.244;2023-03-01T15:49:01;8.80;99.90
51733;DHT22;39139;53.144;6.244;2023-03-01T15:51:37;8.80;99.90
51733;DHT22;39139;53.144;6.244;2023-03-01T15:54:19;8.80;99.90
51733;DHT22;39139;53.144;6.244;2023-03-01T15:56:46;8.80;99.90
51733;DHT22;39139;53.144;6.244;2023-03-01T15:59:13;8.60;99.90
51733;DHT22;39139;53.144;6.244;2023-03-01T16:01:43;8.60;99.90
51733;DHT22;39139;53.144;6.244;2023-03-01T16:04:12;8.60;99.90
51733;DHT22;39139;53.144;6.244;2023-03-01T16:06:41;8.50;99.90
51733;DHT22;39139;53.144;6.244;2023-03-01T16:09:07;8.50;99.90
51733;DHT22;39139;53.144;6.244;2023-03-01T16:11:35;8.50;99.90
51733;DHT22;39139;53.144;6.244;2023-03-01T16:14:02;8.50;99.90
51733;DHT22;39139;53.144;6.244;2023-03-01T16:16:28;8.60;99.90
51733;DHT22;39139;53.144;6.244;2023-03-01T16:18:53;8.30;99.90
51733;DHT22;39139;53.144;6.244;2023-03-01T16:21:23;8.20;99.90
51733;DHT22;39139;53.144;6.244;2023-03-01T16:23:49;8.20;99.90
51733;DHT22;39139;53.144;6.244;2023-03-01T16:26:16;8.10;99.90
51733;DHT22;39139;53.144;6.244;2023-03-01T16:28:42;8.20;99.90
51733;DHT22;39139;53.144;6.244;2023-03-01T16:31:08;8.00;99.90
51733;DHT22;39139;53.144;6.244;2023-03-01T16:33:35;7.90;99.90
51733;DHT22;39139;53.144;6.244;2023-03-01T16:36:05;7.80;99.90
51733;DHT22;39139;53.144;6.244;2023-03-01T16:38:31;8.10;99.90
51733;DHT22;39139;53.144;6.244;2023-03-01T16:40:57;7.60;99.90
51733;DHT22;39139;53.144;6.244;2023-03-01T16:43:23;7.60;99.90
51733;DHT22;39139;53.144;6.244;2023-03-01T16:45:49;7.50;99.90
51733;DHT22;39139;53.144;6.244;2023-03-01T16:48:14;7.40;99.90
51733;DHT22;39139;53.144;6.244;2023-03-01T16:50:40;7.30;99.90
51733;DHT22;39139;53.144;6.244;2023-03-01T16:53:06;7.20;99.90
51733;DHT22;39139;53.144;6.244;2023-03-01T16:55:32;7.10;99.90
51733;DHT22;39139;53.144;6.244;2023-03-01T16:57:58;7.00;99.90
51733;DHT22;39139;53.144;6.244;2023-03-01T17:00:24;7.20;99.90
51733;DHT22;39139;53.144;6.244;2023-03-01T17:02:50;6.80;99.90
51733;DHT22;39139;53.144;6.244;2023-03-01T17:05:17;6.80;99.90
51733;DHT22;39139;53.144;6.244;2023-03-01T17:07:43;6.70;99.90
51733;DHT22;39139;53.144;6.244;2023-03-01T17:10:09;6.60;99.90
51733;DHT22;39139;53.144;6.244;2023-03-01T17:12:36;6.50;99.90
51733;DHT22;39139;53.144;6.244;2023-03-01T17:15:02;6.30;99.90
51733;DHT22;39139;53.144;6.244;2023-03-01T17:17:29;6.20;99.90
51733;DHT22;39139;53.144;6.244;2023-03-01T17:19:55;6.10;99.90
51733;DHT22;39139;53.144;6.244;2023-03-01T17:22:21;6.50;99.90
51733;DHT22;39139;53.144;6.244;2023-03-01T17:24:47;6.00;99.90
51733;DHT22;39139;53.144;6.244;2023-03-01T17:27:13;5.90;99.90
51733;DHT22;39139;53.144;6.244;2023-03-01T17:29:40;5.90;99.90
51733;DHT22;39139;53.144;6.244;2023-03-01T17:32:06;6.00;99.90
51733;DHT22;39139;53.144;6.244;2023-03-01T17:34:32;5.80;99.90
51733;DHT22;39139;53.144;6.244;2023-03-01T17:36:58;5.60;99.90
51733;DHT22;39139;53.144;6.244;2023-03-01T17:39:24;5.50;99.90
51733;DHT22;39139;53.144;6.244;2023-03-01T17:41:53;5.40;99.90
51733;DHT22;39139;53.144;6.244;2023-03-01T17:44:19;5.30;99.90
51733;DHT22;39139;53.144;6.244;2023-03-01T17:46:45;5.20;99.90